createdAt,value
2018-06-15T00:03:24.018Z,96710.22
2018-06-15T00:06:48.671Z,96711.83
2018-06-15T00:10:13.370Z,96718.77
2018-06-15T00:13:38.028Z,96723.55
2018-06-15T00:17:02.662Z,96722.97
2018-06-15T00:20:27.356Z,96716.63
2018-06-15T00:23:51.986Z,96721.00
2018-06-15T00:27:16.650Z,96716.65
2018-06-15T00:30:41.276Z,96718.80
2018-06-15T00:34:05.924Z,96716.84
2018-06-15T00:37:30.609Z,96714.09
2018-06-15T00:40:55.272Z,96713.27
2018-06-15T00:44:19.926Z,96727.62
2018-06-15T00:47:44.602Z,96721.72
2018-06-15T00:51:09.294Z,96717.04
2018-06-15T00:54:33.886Z,96718.19
2018-06-15T00:57:58.595Z,96718.73
2018-06-15T01:01:23.292Z,96714.05
2018-06-15T01:04:47.938Z,96721.41
2018-06-15T01:08:12.572Z,96712.09
2018-06-15T01:11:37.740Z,96707.50
2018-06-15T01:15:02.370Z,96702.02
2018-06-15T01:18:27.442Z,96701.66
2018-06-15T01:21:52.165Z,96696.45
2018-06-15T01:25:16.798Z,96693.16
2018-06-15T01:28:41.439Z,96691.31
2018-06-15T01:32:07.104Z,96681.80
2018-06-15T01:35:31.805Z,96687.53
2018-06-15T01:38:56.364Z,96683.16
2018-06-15T01:42:20.692Z,96669.91
2018-06-15T01:45:45.409Z,96676.69
2018-06-15T01:49:09.707Z,96665.92
2018-06-15T01:52:34.376Z,96670.45
2018-06-15T01:55:58.692Z,96664.92
2018-06-15T01:59:23.324Z,96670.98
2018-06-15T02:02:47.981Z,96670.61
2018-06-15T02:06:12.330Z,96669.64
2018-06-15T02:09:37.132Z,96661.10
2018-06-15T02:13:01.781Z,96662.91
2018-06-15T02:16:26.612Z,96659.33
2018-06-15T02:19:51.284Z,96663.23
2018-06-15T02:23:16.005Z,96661.38
2018-06-15T02:26:40.751Z,96663.33
2018-06-15T02:30:05.677Z,96659.53
2018-06-15T02:33:30.402Z,96662.55
2018-06-15T02:36:55.078Z,96659.06
2018-06-15T02:40:19.746Z,96654.41
2018-06-15T02:43:44.422Z,96656.88
2018-06-15T02:47:09.063Z,96656.11
2018-06-15T02:50:33.728Z,96662.13
2018-06-15T02:53:58.358Z,96672.44
2018-06-15T02:57:22.982Z,96665.47
2018-06-15T03:00:47.651Z,96661.77
2018-06-15T03:04:12.388Z,96668.80
2018-06-15T03:07:37.169Z,96674.88
2018-06-15T03:11:01.747Z,96677.67
2018-06-15T03:14:26.392Z,96679.07
2018-06-15T03:17:51.027Z,96672.36
2018-06-15T03:21:15.616Z,96680.69
2018-06-15T03:24:40.364Z,96676.73
2018-06-15T03:28:05.131Z,96680.16
2018-06-15T03:31:29.839Z,96675.42
2018-06-15T03:34:54.449Z,96672.64
2018-06-15T03:38:19.108Z,96674.56
2018-06-15T03:41:43.698Z,96663.59
2018-06-15T03:45:08.317Z,96667.33
2018-06-15T03:48:32.964Z,96672.71
2018-06-15T03:51:57.586Z,96663.22
2018-06-15T03:55:22.243Z,96667.12
2018-06-15T03:58:46.893Z,96667.88
2018-06-15T04:02:11.615Z,96672.25
2018-06-15T04:05:36.333Z,96675.66
2018-06-15T04:09:01.073Z,96669.72
2018-06-15T04:12:25.745Z,96681.45
2018-06-15T04:15:50.379Z,96672.29
2018-06-15T04:19:15.035Z,96675.61
2018-06-15T04:22:39.696Z,96671.33
2018-06-15T04:26:04.391Z,96670.73
2018-06-15T04:29:29.101Z,96675.34
2018-06-15T04:32:53.889Z,96678.87
2018-06-15T04:36:18.648Z,96670.97
2018-06-15T04:39:42.954Z,96674.19
2018-06-15T04:43:07.682Z,96674.35
2018-06-15T04:46:32.448Z,96671.91
2018-06-15T04:49:57.045Z,96675.63
2018-06-15T04:53:21.708Z,96677.65
2018-06-15T04:56:46.349Z,96681.78
2018-06-15T05:00:11.025Z,96681.41
2018-06-15T05:03:35.675Z,96678.80
2018-06-15T05:07:00.032Z,96683.75
2018-06-15T05:10:25.197Z,96692.44
2018-06-15T05:13:49.998Z,96681.52
2018-06-15T05:17:14.881Z,96677.81
2018-06-15T05:20:39.900Z,96678.33
2018-06-15T05:24:04.675Z,96680.40
2018-06-15T05:27:29.452Z,96684.23
2018-06-15T05:30:54.222Z,96689.58
2018-06-15T05:34:18.966Z,96685.63
2018-06-15T05:37:43.649Z,96677.83
2018-06-15T05:41:08.450Z,96679.69
2018-06-15T05:44:33.149Z,96681.82
2018-06-15T05:47:57.855Z,96678.20
2018-06-15T05:51:22.673Z,96687.56
2018-06-15T05:54:47.042Z,96686.76
2018-06-15T05:58:11.794Z,96694.50
2018-06-15T06:01:36.456Z,96698.27
2018-06-15T06:05:01.169Z,96699.40
2018-06-15T06:08:25.977Z,96702.64
2018-06-15T06:11:50.760Z,96694.88
2018-06-15T06:15:15.503Z,96698.88
2018-06-15T06:18:40.198Z,96696.11
2018-06-15T06:22:04.964Z,96703.84
2018-06-15T06:25:29.850Z,96702.34
2018-06-15T06:28:54.526Z,96703.18
2018-06-15T06:32:19.272Z,96701.38
2018-06-15T06:35:44.125Z,96696.34
2018-06-15T06:39:10.704Z,96693.08
2018-06-15T06:42:35.369Z,96699.48
2018-06-15T06:46:00.060Z,96702.04
2018-06-15T06:49:24.783Z,96702.79
2018-06-15T06:52:49.516Z,96705.34
2018-06-15T06:56:13.904Z,96703.03
2018-06-15T06:59:38.623Z,96707.52
2018-06-15T07:03:03.303Z,96699.83
2018-06-15T07:06:28.028Z,96707.30
2018-06-15T07:09:52.689Z,96704.67
2018-06-15T07:13:17.393Z,96701.58
2018-06-15T07:16:42.012Z,96708.55
2018-06-15T07:20:06.702Z,96712.33
2018-06-15T07:23:31.512Z,96711.86
2018-06-15T07:26:56.121Z,96714.07
2018-06-15T07:30:20.768Z,96708.47
2018-06-15T07:33:45.543Z,96704.45
2018-06-15T07:37:10.284Z,96703.11
2018-06-15T07:40:34.924Z,96705.45
2018-06-15T07:43:59.647Z,96699.14
2018-06-15T07:47:24.448Z,96704.62
2018-06-15T07:50:50.120Z,96699.05
2018-06-15T07:54:14.975Z,96701.71
2018-06-15T07:57:39.646Z,96699.36
2018-06-15T08:01:04.332Z,96703.05
2018-06-15T08:04:28.731Z,96694.82
2018-06-15T08:07:53.071Z,96693.61
2018-06-15T08:11:17.820Z,96693.98
2018-06-15T08:14:42.653Z,96697.20
2018-06-15T08:18:07.420Z,96696.33
2018-06-15T08:21:31.784Z,96693.73
2018-06-15T08:24:56.520Z,96698.47
2018-06-15T08:28:21.247Z,96702.04
2018-06-15T08:31:46.007Z,96701.20
2018-06-15T08:35:10.677Z,96698.36
2018-06-15T08:38:35.319Z,96693.39
2018-06-15T08:41:59.725Z,96696.09
2018-06-15T08:45:24.478Z,96686.43
2018-06-15T08:48:49.177Z,96684.36
2018-06-15T08:52:13.884Z,96680.61
2018-06-15T08:55:38.519Z,96682.64
2018-06-15T08:59:03.482Z,96672.45
2018-06-15T09:02:27.868Z,96672.61
2018-06-15T09:05:52.258Z,96682.82
2018-06-15T09:09:17.140Z,96675.41
2018-06-15T09:12:41.968Z,96672.58
2018-06-15T09:16:06.729Z,96667.31
2018-06-15T09:19:31.418Z,96667.73
2018-06-15T09:22:56.172Z,96672.48
2018-06-15T09:26:20.910Z,96675.64
2018-06-15T09:29:45.618Z,96669.31
2018-06-15T09:33:10.462Z,96674.73
2018-06-15T09:36:35.179Z,96665.88
2018-06-15T09:39:59.956Z,96675.52
2018-06-15T09:43:24.812Z,96669.93
2018-06-15T09:46:49.646Z,96671.00
2018-06-15T09:50:14.321Z,96669.48
2018-06-15T09:53:39.025Z,96680.95
2018-06-15T09:57:03.835Z,96679.88
2018-06-15T10:00:33.847Z,96674.26
2018-06-15T10:03:58.565Z,96669.52
2018-06-15T10:07:23.217Z,96674.63
2018-06-15T10:10:47.907Z,96670.41
2018-06-15T10:14:12.611Z,96669.44
2018-06-15T10:17:36.993Z,96672.27
2018-06-15T10:21:01.786Z,96671.13
2018-06-15T10:24:26.565Z,96673.76
2018-06-15T10:27:52.350Z,96669.80
2018-06-15T10:31:17.758Z,96668.00
2018-06-15T10:34:43.872Z,96667.20
2018-06-15T10:38:08.881Z,96662.97
2018-06-15T10:41:33.648Z,96661.40
2018-06-15T10:44:59.418Z,96664.02
2018-06-15T10:48:24.328Z,96660.88
2018-06-15T10:51:49.244Z,96661.22
2018-06-15T10:55:14.237Z,96662.61
2018-06-15T10:58:39.660Z,96667.92
2018-06-15T11:02:04.462Z,96657.98
2018-06-15T11:05:29.321Z,96657.54
2018-06-15T11:08:54.906Z,96658.86
2018-06-15T11:12:21.151Z,96657.44
2018-06-15T11:15:47.132Z,96654.20
2018-06-15T11:19:13.942Z,96648.83
2018-06-15T11:22:38.932Z,96649.95
2018-06-15T11:26:05.891Z,96647.78
2018-06-15T11:29:32.117Z,96644.55
2018-06-15T11:32:56.974Z,96643.83
2018-06-15T11:36:22.975Z,96644.97
2018-06-15T11:39:48.463Z,96647.48
2018-06-15T11:43:13.939Z,96638.24
2018-06-15T11:46:38.775Z,96648.75
2018-06-15T11:58:02.707Z,96631.92
2018-06-15T12:01:27.628Z,96636.67
2018-06-15T12:04:52.507Z,96645.99
2018-06-15T12:08:17.468Z,96632.78
2018-06-15T12:11:42.441Z,96627.49
2018-06-15T12:15:07.469Z,96625.91
2018-06-15T12:18:33.049Z,96621.82
2018-06-15T12:21:58.101Z,96633.44
2018-06-15T12:25:23.396Z,96631.29
2018-06-15T12:28:48.170Z,96625.16
2018-06-15T12:32:12.871Z,96625.33
2018-06-15T12:35:37.709Z,96622.38
2018-06-15T12:39:02.440Z,96616.52
2018-06-15T12:42:27.176Z,96618.91
2018-06-15T12:45:52.088Z,96621.36
2018-06-15T12:49:16.751Z,96620.27
2018-06-15T12:52:41.580Z,96620.83
2018-06-15T12:56:06.290Z,96614.16
2018-06-15T12:59:31.150Z,96615.84
2018-06-15T13:02:55.846Z,96622.95
2018-06-15T13:06:20.626Z,96615.91
2018-06-15T13:09:45.269Z,96611.40
2018-06-15T13:13:10.024Z,96613.57
2018-06-15T13:16:35.044Z,96613.48
2018-06-15T13:19:59.705Z,96612.38
2018-06-15T13:23:24.466Z,96607.35
2018-06-15T13:26:50.225Z,96607.05
2018-06-15T13:30:15.568Z,96603.48
2018-06-15T13:33:40.253Z,96613.17
2018-06-15T13:37:05.414Z,96609.08
2018-06-15T13:40:30.195Z,96612.83
2018-06-15T13:43:55.018Z,96602.61
2018-06-15T13:47:19.852Z,96606.47
2018-06-15T13:50:44.882Z,96600.75
2018-06-15T13:54:09.583Z,96605.00
2018-06-15T13:57:34.243Z,96601.53
2018-06-15T14:00:58.879Z,96589.81
2018-06-15T14:04:23.249Z,96596.84
2018-06-15T14:07:47.961Z,96592.24
2018-06-15T14:11:12.595Z,96588.03
2018-06-15T14:14:37.305Z,96581.68
2018-06-15T14:18:02.311Z,96573.77
2018-06-15T14:21:26.989Z,96578.87
2018-06-15T14:24:51.610Z,96582.55
2018-06-15T14:28:16.282Z,96582.80
2018-06-15T14:31:40.930Z,96580.23
2018-06-15T14:35:05.597Z,96575.67
2018-06-15T14:38:30.368Z,96571.12
2018-06-15T14:41:54.769Z,96577.59
2018-06-15T14:45:19.446Z,96577.27
2018-06-15T14:48:44.141Z,96578.58
2018-06-15T14:52:08.507Z,96576.45
2018-06-15T14:55:33.270Z,96570.06
2018-06-15T14:58:57.949Z,96578.57
2018-06-15T15:02:22.674Z,96576.42
2018-06-15T15:05:47.379Z,96569.22
2018-06-15T15:09:11.762Z,96561.75
2018-06-15T15:12:36.510Z,96572.97
2018-06-15T15:16:01.218Z,96567.97
2018-06-15T15:19:25.552Z,96571.72
2018-06-15T15:22:50.259Z,96570.72
2018-06-15T15:26:15.092Z,96568.38
2018-06-15T15:29:39.773Z,96560.81
2018-06-15T15:33:04.525Z,96563.53
2018-06-15T15:36:29.343Z,96558.55
2018-06-15T15:39:53.900Z,96557.40
2018-06-15T15:43:18.630Z,96556.16
2018-06-15T15:46:42.934Z,96552.53
2018-06-15T15:50:07.711Z,96553.72
2018-06-15T15:53:32.380Z,96549.24
2018-06-15T15:56:57.111Z,96550.63
2018-06-15T16:00:21.558Z,96545.16
2018-06-15T16:03:46.395Z,96547.16
2018-06-15T16:07:11.013Z,96543.33
2018-06-15T16:10:35.743Z,96546.14
2018-06-15T16:14:00.523Z,96543.22
2018-06-15T16:17:25.431Z,96541.97
2018-06-15T16:20:50.160Z,96541.53
2018-06-15T16:24:14.866Z,96538.95
2018-06-15T16:27:39.619Z,96535.58
2018-06-15T16:31:04.369Z,96532.22
2018-06-15T16:34:29.087Z,96535.88
2018-06-15T16:37:53.978Z,96541.68
2018-06-15T16:41:18.773Z,96550.84
2018-06-15T16:44:43.230Z,96543.70
2018-06-15T16:48:07.934Z,96556.09
2018-06-15T16:51:32.591Z,96543.86
2018-06-15T16:54:56.892Z,96548.31
2018-06-15T16:58:21.567Z,96550.41
2018-06-15T17:01:46.213Z,96551.41
2018-06-15T17:05:11.029Z,96547.40
2018-06-15T17:08:35.669Z,96548.03
2018-06-15T17:12:00.369Z,96554.00
2018-06-15T17:15:25.105Z,96546.54
2018-06-15T17:18:49.753Z,96548.55
2018-06-15T17:22:14.099Z,96550.77
2018-06-15T17:25:38.790Z,96552.22
2018-06-15T17:29:03.235Z,96550.03
2018-06-15T17:32:27.844Z,96550.13
2018-06-15T17:35:52.522Z,96552.62
2018-06-15T17:39:17.159Z,96556.47
2018-06-15T17:42:41.816Z,96555.80
2018-06-15T17:46:06.654Z,96556.11
2018-06-15T17:49:31.504Z,96548.05
2018-06-15T17:52:55.881Z,96564.61
2018-06-15T17:56:20.615Z,96553.00
2018-06-15T17:59:45.294Z,96560.07
2018-06-15T18:03:10.286Z,96556.82
2018-06-15T18:06:34.938Z,96564.94
2018-06-15T18:09:59.789Z,96559.64
2018-06-15T18:13:24.489Z,96565.20
2018-06-15T18:16:49.376Z,96567.95
2018-06-15T18:20:14.054Z,96568.25
2018-06-15T18:23:38.857Z,96566.59
2018-06-15T18:27:03.610Z,96569.27
2018-06-15T18:30:29.160Z,96570.34
2018-06-15T18:33:53.964Z,96578.16
2018-06-15T18:37:18.614Z,96575.30
2018-06-15T18:40:43.473Z,96575.30
2018-06-15T18:44:08.500Z,96575.31
2018-06-15T18:47:33.478Z,96579.40
2018-06-15T18:50:58.451Z,96578.63
2018-06-15T18:54:23.354Z,96583.20
2018-06-15T18:57:48.196Z,96582.09
2018-06-15T19:01:12.947Z,96582.23
2018-06-15T19:04:37.744Z,96587.52
2018-06-15T19:08:02.514Z,96585.36
2018-06-15T19:11:27.249Z,96596.83
2018-06-15T19:14:51.968Z,96592.39
2018-06-15T19:18:16.805Z,96598.54
2018-06-15T19:21:41.228Z,96592.36
2018-06-15T19:25:06.002Z,96599.28
2018-06-15T19:28:30.730Z,96597.80
2018-06-15T19:31:55.483Z,96610.73
2018-06-15T19:35:20.128Z,96616.07
2018-06-15T19:38:44.805Z,96620.66
2018-06-15T19:42:09.449Z,96621.66
2018-06-15T19:45:34.147Z,96617.55
2018-06-15T19:48:58.895Z,96620.98
2018-06-15T19:52:23.555Z,96620.06
2018-06-15T19:55:48.254Z,96619.59
2018-06-15T19:59:12.907Z,96622.70
2018-06-15T20:02:37.533Z,96624.36
2018-06-15T20:06:02.254Z,96630.23
2018-06-15T20:09:26.921Z,96623.87
2018-06-15T20:12:51.562Z,96629.91
2018-06-15T20:16:16.852Z,96630.16
2018-06-15T20:19:41.595Z,96634.30
2018-06-15T20:23:06.379Z,96634.45
2018-06-15T20:26:31.169Z,96631.42
2018-06-15T20:29:55.573Z,96634.45
2018-06-15T20:33:20.240Z,96640.04
2018-06-15T20:36:44.959Z,96632.05
2018-06-15T20:40:09.334Z,96632.27
2018-06-15T20:43:33.993Z,96629.01
2018-06-15T20:46:58.636Z,96625.59
2018-06-15T20:50:23.320Z,96625.94
2018-06-15T20:53:48.011Z,96628.25
2018-06-15T20:57:12.724Z,96620.73
2018-06-15T21:00:37.337Z,96629.64
2018-06-15T21:04:01.983Z,96631.66
2018-06-15T21:07:26.673Z,96628.18
2018-06-15T21:10:51.321Z,96630.33
2018-06-15T21:14:16.129Z,96627.81
2018-06-15T21:17:40.795Z,96623.63
2018-06-15T21:21:05.503Z,96628.88
2018-06-15T21:24:29.893Z,96627.31
2018-06-15T21:27:54.726Z,96627.91
2018-06-15T21:31:19.574Z,96633.14
2018-06-15T21:34:44.331Z,96634.41
2018-06-15T21:38:09.256Z,96634.52
2018-06-15T21:41:33.957Z,96630.98
2018-06-15T21:44:58.621Z,96628.95
2018-06-15T21:48:23.283Z,96634.79
2018-06-15T21:51:48.053Z,96636.09
2018-06-15T21:55:12.764Z,96637.85
2018-06-15T21:58:37.482Z,96635.84
2018-06-15T22:02:02.260Z,96645.24
2018-06-15T22:05:26.916Z,96640.86
2018-06-15T22:08:51.333Z,96634.25
2018-06-15T22:12:16.032Z,96640.44
2018-06-15T22:15:40.740Z,96641.66
2018-06-15T22:19:05.566Z,96636.78
2018-06-15T22:22:31.277Z,96636.68
2018-06-15T22:25:56.009Z,96644.88
2018-06-15T22:29:20.796Z,96641.31
2018-06-15T22:32:45.450Z,96640.23
2018-06-15T22:36:10.296Z,96641.78
2018-06-15T22:39:34.986Z,96637.15
2018-06-15T22:42:59.659Z,96637.01
2018-06-15T22:46:24.356Z,96638.44
2018-06-15T22:49:49.040Z,96639.98
2018-06-15T22:53:13.705Z,96632.13
2018-06-15T22:56:40.967Z,96625.20
2018-06-15T23:00:06.152Z,96625.56
2018-06-15T23:03:30.961Z,96624.27
2018-06-15T23:06:55.607Z,96633.26
2018-06-15T23:10:20.364Z,96634.80
2018-06-15T23:13:45.104Z,96625.69
2018-06-15T23:17:09.818Z,96625.69
2018-06-15T23:20:34.468Z,96625.54
2018-06-15T23:23:58.801Z,96628.39
2018-06-15T23:27:23.484Z,96623.60
2018-06-15T23:30:48.263Z,96625.73
2018-06-15T23:34:13.026Z,96629.02
2018-06-15T23:37:37.705Z,96626.30
2018-06-15T23:41:02.399Z,96621.88
2018-06-15T23:44:26.717Z,96625.44
2018-06-15T23:47:51.368Z,96621.09
2018-06-15T23:51:16.065Z,96622.07
2018-06-15T23:54:40.739Z,96617.17
2018-06-15T23:58:05.547Z,96621.12
